createdAt,value
2023-04-29T00:00:55.761Z,100079.19
2023-04-29T00:03:23.620Z,100077.50
2023-04-29T00:05:51.483Z,100082.00
2023-04-29T00:08:19.372Z,100077.81
2023-04-29T00:10:47.080Z,100080.31
2023-04-29T00:13:14.805Z,100072.59
2023-04-29T00:15:43.145Z,100072.59
2023-04-29T00:18:13.885Z,100075.28
2023-04-29T00:20:43.258Z,100074.56
2023-04-29T00:23:10.943Z,100081.75
2023-04-29T00:25:39.058Z,100083.44
2023-04-29T00:28:06.796Z,100080.75
2023-04-29T00:30:34.839Z,100078.09
2023-04-29T00:33:03.122Z,100087.25
2023-04-29T00:35:32.174Z,100083.88
2023-04-29T00:38:00.160Z,100082.16
2023-04-29T00:40:29.216Z,100086.69
2023-04-29T00:42:57.255Z,100076.25
2023-04-29T00:45:25.215Z,100075.75
2023-04-29T00:47:53.053Z,100072.38
2023-04-29T00:50:21.001Z,100073.47
2023-04-29T00:52:50.452Z,100073.09
2023-04-29T00:55:18.651Z,100077.72
2023-04-29T00:57:48.259Z,100068.16
2023-04-29T01:00:17.247Z,100071.97
2023-04-29T01:02:46.896Z,100075.91
2023-04-29T01:05:15.137Z,100064.81
2023-04-29T01:07:50.140Z,100078.59
2023-04-29T01:10:28.207Z,100083.34
2023-04-29T01:13:05.793Z,100081.97
2023-04-29T01:15:41.004Z,100088.16
2023-04-29T01:18:12.809Z,100097.84
2023-04-29T01:20:42.076Z,100092.38
2023-04-29T01:23:09.792Z,100093.06
2023-04-29T01:25:39.360Z,100094.75
2023-04-29T01:28:14.962Z,100091.94
2023-04-29T01:30:51.419Z,100095.59
2023-04-29T01:33:30.028Z,100091.81
2023-04-29T01:36:15.557Z,100091.81
2023-04-29T01:38:48.547Z,100092.50
2023-04-29T01:41:24.609Z,100094.91
2023-04-29T01:43:53.633Z,100096.56
2023-04-29T01:46:21.524Z,100093.91
2023-04-29T01:48:49.307Z,100093.63
2023-04-29T01:51:17.013Z,100095.75
2023-04-29T01:53:44.763Z,100097.84
2023-04-29T01:56:12.535Z,100094.47
2023-04-29T01:58:41.622Z,100106.00
2023-04-29T02:01:10.500Z,100107.00
2023-04-29T02:03:39.187Z,100103.63
2023-04-29T02:06:08.047Z,100106.28
2023-04-29T02:08:35.751Z,100103.75
2023-04-29T02:11:03.511Z,100103.88
2023-04-29T02:13:31.996Z,100105.03
2023-04-29T02:16:08.692Z,100107.25
2023-04-29T02:18:36.563Z,100109.38
2023-04-29T02:21:04.535Z,100110.78
2023-04-29T02:23:32.353Z,100115.56
2023-04-29T02:26:00.067Z,100111.34
2023-04-29T02:28:27.814Z,100124.13
2023-04-29T02:30:55.653Z,100117.50
2023-04-29T02:33:24.769Z,100112.59
2023-04-29T02:35:52.545Z,100107.66
2023-04-29T02:38:20.260Z,100109.63
2023-04-29T02:40:48.262Z,100118.84
2023-04-29T02:43:15.971Z,100122.78
2023-04-29T02:45:43.687Z,100123.50
2023-04-29T02:48:11.528Z,100122.06
2023-04-29T02:50:40.693Z,100110.00
2023-04-29T02:53:08.352Z,100121.09
2023-04-29T02:55:36.101Z,100119.53
2023-04-29T02:58:03.915Z,100117.97
2023-04-29T03:00:31.661Z,100119.22
2023-04-29T03:02:59.434Z,100122.59
2023-04-29T03:05:27.375Z,100119.34
2023-04-29T03:07:56.777Z,100123.97
2023-04-29T03:10:24.746Z,100112.19
2023-04-29T03:12:52.650Z,100118.06
2023-04-29T03:15:20.533Z,100120.88
2023-04-29T03:17:48.552Z,100120.16
2023-04-29T03:20:16.381Z,100121.28
2023-04-29T03:22:44.205Z,100123.06
2023-04-29T03:25:13.636Z,100124.19
2023-04-29T03:27:41.942Z,100127.97
2023-04-29T03:30:10.491Z,100123.78
2023-04-29T03:32:38.446Z,100127.28
2023-04-29T03:35:07.178Z,100130.06
2023-04-29T03:37:34.903Z,100126.56
2023-04-29T03:40:02.610Z,100128.53
2023-04-29T03:42:31.695Z,100135.69
2023-04-29T03:44:59.424Z,100135.69
2023-04-29T03:47:27.138Z,100137.34
2023-04-29T03:49:55.095Z,100138.19
2023-04-29T03:52:22.956Z,100146.91
2023-04-29T03:54:50.612Z,100149.19
2023-04-29T03:57:18.293Z,100152.28
2023-04-29T03:59:50.553Z,100146.69
2023-04-29T04:02:18.576Z,100147.41
2023-04-29T04:04:46.739Z,100154.56
2023-04-29T04:07:14.717Z,100155.53
2023-04-29T04:09:42.453Z,100159.91
2023-04-29T04:12:10.228Z,100162.56
2023-04-29T04:14:37.978Z,100164.94
2023-04-29T04:17:07.583Z,100171.00
2023-04-29T04:19:35.387Z,100168.91
2023-04-29T04:22:04.631Z,100162.56
2023-04-29T04:24:32.354Z,100170.31
2023-04-29T04:27:00.085Z,100170.03
2023-04-29T04:29:27.796Z,100169.66
2023-04-29T04:31:55.797Z,100171.78
2023-04-29T04:34:24.995Z,100177.69
2023-04-29T04:36:52.738Z,100181.91
2023-04-29T04:39:20.484Z,100184.28
2023-04-29T04:41:48.191Z,100190.19
2023-04-29T04:44:16.584Z,100190.78
2023-04-29T04:46:44.468Z,100195.03
2023-04-29T04:49:12.084Z,100199.25
2023-04-29T04:51:41.270Z,100199.81
2023-04-29T04:54:09.109Z,100196.88
2023-04-29T04:56:37.792Z,100208.28
2023-04-29T04:59:05.622Z,100214.19
2023-04-29T05:01:34.176Z,100215.03
2023-04-29T05:04:02.900Z,100220.09
2023-04-29T05:06:30.785Z,100229.78
2023-04-29T05:08:59.946Z,100229.78
2023-04-29T05:11:27.744Z,100238.38
2023-04-29T05:13:55.556Z,100237.38
2023-04-29T05:16:23.397Z,100238.94
2023-04-29T05:18:51.225Z,100242.19
2023-04-29T05:21:18.941Z,100241.91
2023-04-29T05:23:46.747Z,100245.28
2023-04-29T05:26:15.833Z,100244.16
2023-04-29T05:28:43.576Z,100250.34
2023-04-29T05:31:11.360Z,100258.38
2023-04-29T05:33:39.202Z,100257.38
2023-04-29T05:36:07.840Z,100255.53
2023-04-29T05:38:35.614Z,100266.09
2023-04-29T05:41:03.702Z,100264.84
2023-04-29T05:43:33.171Z,100273.41
2023-04-29T05:46:01.459Z,100265.84
2023-04-29T05:48:29.960Z,100266.25
2023-04-29T05:50:57.751Z,100275.44
2023-04-29T05:53:25.587Z,100282.88
2023-04-29T05:55:53.271Z,100277.81
2023-04-29T05:58:20.955Z,100282.72
2023-04-29T06:00:50.366Z,100286.69
2023-04-29T06:03:18.245Z,100283.75
2023-04-29T06:05:46.472Z,100285.84
2023-04-29T06:08:14.538Z,100293.56
2023-04-29T06:10:42.228Z,100286.13
2023-04-29T06:13:10.140Z,100288.53
2023-04-29T06:15:37.950Z,100296.25
2023-04-29T06:18:07.114Z,100290.75
2023-04-29T06:20:36.799Z,100306.69
2023-04-29T06:23:05.991Z,100311.72
2023-04-29T06:25:33.753Z,100313.44
2023-04-29T06:28:02.136Z,100319.34
2023-04-29T06:30:29.843Z,100314.56
2023-04-29T06:32:57.870Z,100324.13
2023-04-29T06:35:26.998Z,100323.69
2023-04-29T06:37:56.636Z,100328.59
2023-04-29T06:40:24.351Z,100324.72
2023-04-29T06:42:52.649Z,100321.59
2023-04-29T06:45:20.825Z,100323.84
2023-04-29T06:47:48.563Z,100323.56
2023-04-29T06:50:16.630Z,100332.72
2023-04-29T06:52:45.745Z,100333.56
2023-04-29T06:55:13.439Z,100338.63
2023-04-29T06:57:41.115Z,100355.69
2023-04-29T07:00:10.189Z,100354.97
2023-04-29T07:02:39.089Z,100354.28
2023-04-29T07:05:08.165Z,100368.34
2023-04-29T07:07:35.918Z,100367.53
2023-04-29T07:10:05.512Z,100369.31
2023-04-29T07:12:33.271Z,100370.31
2023-04-29T07:15:01.778Z,100378.47
2023-04-29T07:17:31.073Z,100373.97
2023-04-29T07:19:58.789Z,100384.53
2023-04-29T07:22:26.810Z,100391.72
2023-04-29T07:24:55.051Z,100395.25
2023-04-29T07:27:24.596Z,100396.94
2023-04-29T07:29:52.288Z,100398.88
2023-04-29T07:32:20.053Z,100408.47
2023-04-29T07:34:47.837Z,100412.13
2023-04-29T07:37:15.740Z,100417.47
2023-04-29T07:39:43.526Z,100403.66
2023-04-29T07:42:11.382Z,100418.56
2023-04-29T07:44:41.007Z,100421.50
2023-04-29T07:47:08.851Z,100426.88
2023-04-29T07:49:36.517Z,100427.03
2023-04-29T07:52:06.140Z,100436.03
2023-04-29T07:54:33.838Z,100435.44
2023-04-29T07:57:03.573Z,100435.44
2023-04-29T07:59:31.395Z,100443.47
2023-04-29T08:02:00.544Z,100439.00
2023-04-29T08:04:28.895Z,100439.97
2023-04-29T08:06:56.994Z,100440.09
2023-04-29T08:09:24.782Z,100444.03
2023-04-29T08:11:52.546Z,100443.91
2023-04-29T08:14:20.261Z,100451.34
2023-04-29T08:16:48.498Z,100453.03
2023-04-29T08:19:17.619Z,100451.63
2023-04-29T08:21:45.354Z,100458.94
2023-04-29T08:24:13.669Z,100462.72
2023-04-29T08:26:42.459Z,100459.22
2023-04-29T08:29:10.390Z,100467.94
2023-04-29T08:31:38.138Z,100466.53
2023-04-29T08:34:05.875Z,100463.28
2023-04-29T08:36:37.014Z,100471.03
2023-04-29T08:39:04.951Z,100482.84
2023-04-29T08:41:33.680Z,100474.84
2023-04-29T08:44:01.779Z,100478.22
2023-04-29T08:46:30.044Z,100483.41
2023-04-29T08:48:58.871Z,100484.13
2023-04-29T08:51:26.680Z,100488.63
2023-04-29T08:53:57.405Z,100483.28
2023-04-29T08:56:27.847Z,100486.66
2023-04-29T08:58:58.927Z,100494.69
2023-04-29T09:01:28.903Z,100484.81
2023-04-29T09:04:06.225Z,100486.53
2023-04-29T09:06:34.400Z,100494.41
2023-04-29T09:09:04.607Z,100501.06
2023-04-29T09:11:33.283Z,100494.97
2023-04-29T09:14:02.533Z,100497.97
2023-04-29T09:16:30.827Z,100513.59
2023-04-29T09:18:58.826Z,100514.59
2023-04-29T09:21:28.795Z,100517.81
2023-04-29T09:23:58.487Z,100516.00
2023-04-29T09:26:28.445Z,100514.78
2023-04-29T09:29:09.224Z,100514.22
2023-04-29T09:31:39.293Z,100511.25
2023-04-29T09:34:07.812Z,100516.91
2023-04-29T09:36:41.053Z,100509.28
2023-04-29T09:39:12.478Z,100516.03
2023-04-29T09:41:43.633Z,100518.47
2023-04-29T09:44:11.940Z,100523.38
2023-04-29T09:46:39.627Z,100520.31
2023-04-29T09:49:24.982Z,100527.47
2023-04-29T09:51:57.280Z,100531.31
2023-04-29T09:54:26.291Z,100522.72
2023-04-29T09:56:56.160Z,100525.97
2023-04-29T09:59:24.693Z,100528.47
2023-04-29T10:01:56.953Z,100521.84
2023-04-29T10:04:27.109Z,100515.88
2023-04-29T10:06:56.131Z,100515.41
2023-04-29T10:09:25.207Z,100517.53
2023-04-29T10:11:55.366Z,100516.19
2023-04-29T10:14:24.872Z,100520.25
2023-04-29T10:17:03.765Z,100526.00
2023-04-29T10:19:36.457Z,100527.00
2023-04-29T10:22:08.421Z,100527.25
2023-04-29T10:24:38.675Z,100527.09
2023-04-29T10:27:08.842Z,100527.03
2023-04-29T10:29:38.123Z,100527.38
2023-04-29T10:32:09.838Z,100518.41
2023-04-29T10:34:39.735Z,100520.53
2023-04-29T10:37:09.686Z,100524.78
2023-04-29T10:39:45.085Z,100527.31
2023-04-29T10:42:25.258Z,100529.69
2023-04-29T10:45:19.652Z,100524.09
2023-04-29T10:48:13.077Z,100524.09
2023-04-29T10:51:03.413Z,100527.88
2023-04-29T10:53:31.550Z,100527.19
2023-04-29T10:56:04.558Z,100527.78
2023-04-29T10:58:44.308Z,100530.66
2023-04-29T11:01:13.959Z,100524.72
2023-04-29T11:03:50.208Z,100534.75
2023-04-29T11:06:18.108Z,100539.25
2023-04-29T11:08:45.899Z,100539.16
2023-04-29T11:11:15.552Z,100539.91
2023-04-29T11:13:47.982Z,100531.44
2023-04-29T11:16:15.915Z,100534.72
2023-04-29T11:19:08.054Z,100526.53
2023-04-29T11:21:37.037Z,100521.56
2023-04-29T11:24:06.409Z,100527.94
2023-04-29T11:26:35.942Z,100529.47
2023-04-29T11:29:06.234Z,100528.31
2023-04-29T11:31:34.797Z,100536.63
2023-04-29T11:34:02.960Z,100536.78
2023-04-29T11:36:33.513Z,100539.59
2023-04-29T11:39:01.812Z,100539.47
2023-04-29T11:41:29.816Z,100535.25
2023-04-29T11:43:58.723Z,100533.25
2023-04-29T11:46:31.259Z,100538.47
2023-04-29T11:49:00.526Z,100537.59
2023-04-29T11:51:29.115Z,100537.44
2023-04-29T11:53:58.823Z,100542.50
2023-04-29T11:56:26.524Z,100544.34
2023-04-29T11:58:57.687Z,100552.94
2023-04-29T12:01:27.978Z,100549.25
2023-04-29T12:04:00.019Z,100546.75
2023-04-29T12:06:30.010Z,100548.72
2023-04-29T12:09:00.474Z,100550.25
2023-04-29T12:11:28.960Z,100545.59
2023-04-29T12:13:57.067Z,100549.25
2023-04-29T12:16:25.808Z,100552.47
2023-04-29T12:18:55.247Z,100553.72
2023-04-29T12:21:23.210Z,100556.56
2023-04-29T12:23:52.651Z,100561.78
2023-04-29T12:26:21.126Z,100555.56
2023-04-29T12:28:55.552Z,100562.06
2023-04-29T12:31:24.304Z,100561.81
2023-04-29T12:33:57.656Z,100564.06
2023-04-29T12:36:25.320Z,100556.47
2023-04-29T12:38:54.733Z,100558.31
2023-04-29T12:41:37.676Z,100559.72
2023-04-29T12:44:05.348Z,100560.00
2023-04-29T12:46:36.160Z,100559.88
2023-04-29T12:49:06.129Z,100554.94
2023-04-29T12:51:34.177Z,100560.16
2023-04-29T12:54:03.743Z,100566.22
2023-04-29T12:56:31.915Z,100564.38
2023-04-29T12:59:06.572Z,100567.75
2023-04-29T13:01:34.497Z,100561.13
2023-04-29T13:04:02.333Z,100559.13
2023-04-29T13:06:32.312Z,100560.53
2023-04-29T13:09:00.065Z,100560.50
2023-04-29T13:11:32.536Z,100563.03
2023-04-29T13:14:02.313Z,100559.19
2023-04-29T13:16:30.040Z,100562.97
2023-04-29T13:19:05.266Z,100560.31
2023-04-29T13:21:48.521Z,100565.22
2023-04-29T13:24:18.314Z,100567.75
2023-04-29T13:26:46.254Z,100564.59
2023-04-29T13:29:14.037Z,100555.56
2023-04-29T13:31:44.066Z,100559.78
2023-04-29T13:34:11.932Z,100562.00
2023-04-29T13:36:40.030Z,100566.09
2023-04-29T13:39:10.571Z,100567.25
2023-04-29T13:41:41.400Z,100571.59
2023-04-29T13:44:23.605Z,100566.78
2023-04-29T13:46:58.755Z,100569.88
2023-04-29T13:59:40.004Z,100573.75
2023-04-29T14:04:44.677Z,100569.06
2023-04-29T14:07:12.592Z,100581.63
2023-04-29T14:09:41.843Z,100573.34
2023-04-29T14:12:09.634Z,100574.81
2023-04-29T14:14:37.367Z,100572.13
2023-04-29T14:17:05.167Z,100575.72
2023-04-29T14:19:33.022Z,100569.84
2023-04-29T14:22:00.709Z,100568.91
2023-04-29T14:24:28.425Z,100578.44
2023-04-29T14:26:57.946Z,100572.34
2023-04-29T14:29:25.790Z,100575.63
2023-04-29T14:31:53.579Z,100578.84
2023-04-29T14:34:21.775Z,100581.88
2023-04-29T14:36:49.453Z,100588.81
2023-04-29T14:39:17.295Z,100585.13
2023-04-29T14:41:45.155Z,100584.09
2023-04-29T14:44:14.369Z,100589.13
2023-04-29T14:46:42.366Z,100596.34
2023-04-29T14:49:10.459Z,100590.56
2023-04-29T14:51:38.244Z,100593.38
2023-04-29T14:54:05.997Z,100597.63
2023-04-29T14:56:33.707Z,100596.06
2023-04-29T14:59:01.475Z,100598.72
2023-04-29T15:01:32.104Z,100598.00
2023-04-29T15:04:01.311Z,100592.16
2023-04-29T15:06:29.472Z,100603.94
2023-04-29T15:08:57.392Z,100598.00
2023-04-29T15:11:26.178Z,100602.81
2023-04-29T15:13:55.051Z,100599.19
2023-04-29T15:16:22.876Z,100596.44
2023-04-29T15:18:51.932Z,100596.91
2023-04-29T15:21:19.560Z,100596.38
2023-04-29T15:23:47.321Z,100596.44
2023-04-29T15:26:15.079Z,100598.22
2023-04-29T15:28:43.265Z,100599.53
2023-04-29T15:31:11.117Z,100601.13
2023-04-29T15:33:38.895Z,100598.91
2023-04-29T15:36:08.443Z,100594.31
2023-04-29T15:38:36.245Z,100604.41
2023-04-29T15:41:04.029Z,100602.91
2023-04-29T15:43:33.137Z,100603.31
2023-04-29T15:46:01.089Z,100599.78
2023-04-29T15:48:28.917Z,100609.72
2023-04-29T15:50:57.006Z,100607.91
2023-04-29T15:53:26.207Z,100608.06
2023-04-29T15:55:54.681Z,100617.78
2023-04-29T15:58:22.563Z,100615.97
2023-04-29T16:00:51.884Z,100622.44
2023-04-29T16:03:19.808Z,100620.47
2023-04-29T16:05:47.600Z,100627.22
2023-04-29T16:08:15.346Z,100623.09
2023-04-29T16:10:45.337Z,100620.97
2023-04-29T16:13:14.248Z,100625.31
2023-04-29T16:15:42.050Z,100630.44
2023-04-29T16:18:09.962Z,100625.06
2023-04-29T16:20:37.826Z,100631.13
2023-04-29T16:23:06.047Z,100626.91
2023-04-29T16:25:33.795Z,100629.75
2023-04-29T16:28:03.360Z,100636.25
2023-04-29T16:30:31.079Z,100626.09
2023-04-29T16:32:58.920Z,100622.16
2023-04-29T16:35:29.008Z,100629.06
2023-04-29T16:37:56.873Z,100629.06
2023-04-29T16:40:25.106Z,100628.13
2023-04-29T16:42:53.477Z,100629.56
2023-04-29T16:45:23.887Z,100621.53
2023-04-29T16:47:51.852Z,100627.34
2023-04-29T16:50:19.917Z,100621.44
2023-04-29T16:52:48.032Z,100624.25
2023-04-29T16:55:15.833Z,100625.09
2023-04-29T16:57:43.801Z,100631.75
2023-04-29T17:00:12.594Z,100633.50
2023-04-29T17:02:43.061Z,100635.47
2023-04-29T17:05:11.429Z,100642.41
2023-04-29T17:07:39.350Z,100646.38
2023-04-29T17:10:08.308Z,100637.50
2023-04-29T17:12:36.122Z,100641.31
2023-04-29T17:15:04.597Z,100648.25
2023-04-29T17:17:32.345Z,100643.03
2023-04-29T17:20:01.367Z,100653.25
2023-04-29T17:22:29.035Z,100638.13
2023-04-29T17:24:56.983Z,100643.25
2023-04-29T17:27:24.827Z,100652.69
2023-04-29T17:29:53.504Z,100647.78
2023-04-29T17:32:28.383Z,100643.34
2023-04-29T17:34:56.591Z,100659.03
2023-04-29T17:37:25.947Z,100652.53
2023-04-29T17:39:53.953Z,100659.03
2023-04-29T17:42:22.296Z,100659.59
2023-04-29T17:44:50.068Z,100664.94
2023-04-29T17:47:19.181Z,100653.22
2023-04-29T17:49:47.605Z,100661.25
2023-04-29T17:52:17.407Z,100657.16
2023-04-29T17:54:46.502Z,100666.34
2023-04-29T17:57:14.313Z,100672.97
2023-04-29T17:59:42.159Z,100669.28
2023-04-29T18:02:09.884Z,100670.41
2023-04-29T18:04:38.152Z,100676.88
2023-04-29T18:07:05.926Z,100681.66
2023-04-29T18:09:34.641Z,100676.72
2023-04-29T18:12:03.818Z,100675.19
2023-04-29T18:14:32.003Z,100683.59
2023-04-29T18:17:01.267Z,100673.31
2023-04-29T18:19:29.517Z,100689.38
2023-04-29T18:21:59.389Z,100684.16
2023-04-29T18:24:28.562Z,100685.28
2023-04-29T18:26:57.788Z,100690.63
2023-04-29T18:29:27.179Z,100690.03
2023-04-29T18:31:55.752Z,100689.47
2023-04-29T18:34:23.952Z,100691.59
2023-04-29T18:36:52.320Z,100696.22
2023-04-29T18:39:20.299Z,100697.47
2023-04-29T18:41:48.175Z,100701.38
2023-04-29T18:44:16.094Z,100700.81
2023-04-29T18:46:45.405Z,100696.72
2023-04-29T18:49:16.586Z,100705.13
2023-04-29T18:51:46.651Z,100706.84
2023-04-29T18:54:16.458Z,100710.47
2023-04-29T18:56:46.274Z,100710.63
2023-04-29T18:59:15.905Z,100715.28
2023-04-29T19:01:45.648Z,100709.06
2023-04-29T19:04:13.809Z,100713.56
2023-04-29T19:06:42.189Z,100719.88
2023-04-29T19:09:11.090Z,100720.00
2023-04-29T19:11:38.794Z,100726.09
2023-04-29T19:14:07.526Z,100729.63
2023-04-29T19:16:37.274Z,100734.97
2023-04-29T19:19:06.711Z,100734.22
2023-04-29T19:21:34.780Z,100732.66
2023-04-29T19:24:02.885Z,100738.97
2023-04-29T19:26:33.019Z,100738.25
2023-04-29T19:29:02.629Z,100746.41
2023-04-29T19:31:30.548Z,100746.69
2023-04-29T19:33:58.413Z,100743.41
2023-04-29T19:36:27.571Z,100748.78
2023-04-29T19:38:55.394Z,100745.13
2023-04-29T19:41:23.304Z,100752.28
2023-04-29T19:43:51.274Z,100752.28
2023-04-29T19:46:19.101Z,100747.81
2023-04-29T19:48:46.894Z,100756.78
2023-04-29T19:51:14.680Z,100760.47
2023-04-29T19:53:43.810Z,100755.94
2023-04-29T19:56:11.517Z,100760.31
2023-04-29T19:58:39.283Z,100762.25
2023-04-29T20:01:07.199Z,100754.38
2023-04-29T20:03:37.290Z,100759.88
2023-04-29T20:06:05.538Z,100762.66
2023-04-29T20:08:33.430Z,100762.06
2023-04-29T20:11:03.932Z,100766.59
2023-04-29T20:13:31.734Z,100763.91
2023-04-29T20:15:59.610Z,100767.81
2023-04-29T20:18:27.454Z,100763.44
2023-04-29T20:20:55.215Z,100772.44
2023-04-29T20:23:23.151Z,100770.75
2023-04-29T20:25:50.956Z,100765.53
2023-04-29T20:28:20.047Z,100766.25
2023-04-29T20:30:47.828Z,100762.00
2023-04-29T20:33:16.003Z,100762.88
2023-04-29T20:35:43.814Z,100764.94
2023-04-29T20:38:11.944Z,100765.06
2023-04-29T20:40:40.326Z,100766.19
2023-04-29T20:43:08.091Z,100774.19
2023-04-29T20:45:38.951Z,100777.25
2023-04-29T20:48:07.414Z,100777.25
2023-04-29T20:50:35.219Z,100777.13
2023-04-29T20:53:03.315Z,100773.59
2023-04-29T20:55:31.029Z,100778.84
2023-04-29T20:57:58.766Z,100774.31
2023-04-29T21:00:26.519Z,100782.34
2023-04-29T21:02:55.706Z,100784.31
2023-04-29T21:05:23.580Z,100788.81
2023-04-29T21:07:51.296Z,100786.25
2023-04-29T21:10:19.116Z,100784.09
2023-04-29T21:12:46.835Z,100782.50
2023-04-29T21:15:14.584Z,100792.22
2023-04-29T21:17:42.399Z,100788.97
2023-04-29T21:20:12.556Z,100790.78
2023-04-29T21:22:40.332Z,100785.31
2023-04-29T21:25:09.337Z,100783.50
2023-04-29T21:27:37.119Z,100792.34
2023-04-29T21:30:05.803Z,100784.34
2023-04-29T21:32:33.972Z,100779.97
2023-04-29T21:35:02.141Z,100777.31
2023-04-29T21:37:31.904Z,100785.44
2023-04-29T21:40:00.403Z,100790.66
2023-04-29T21:42:28.312Z,100797.09
2023-04-29T21:44:58.091Z,100790.06
2023-04-29T21:47:25.940Z,100787.63
2023-04-29T21:49:55.097Z,100785.94
2023-04-29T21:52:23.341Z,100791.41
2023-04-29T21:54:52.551Z,100787.06
2023-04-29T21:57:26.366Z,100800.28
2023-04-29T21:59:59.971Z,100787.19
2023-04-29T22:02:37.978Z,100799.81
2023-04-29T22:05:06.508Z,100801.88
2023-04-29T22:07:34.225Z,100803.56
2023-04-29T22:10:03.394Z,100799.22
2023-04-29T22:12:31.184Z,100795.72
2023-04-29T22:14:58.995Z,100809.19
2023-04-29T22:17:26.832Z,100804.69
2023-04-29T22:19:54.837Z,100801.28
2023-04-29T22:22:22.686Z,100795.09
2023-04-29T22:24:50.901Z,100802.13
2023-04-29T22:27:20.020Z,100794.13
2023-04-29T22:29:47.792Z,100799.44
2023-04-29T22:32:15.633Z,100811.13
2023-04-29T22:34:43.423Z,100800.56
2023-04-29T22:37:11.125Z,100805.91
2023-04-29T22:39:38.911Z,100807.75
2023-04-29T22:42:07.049Z,100800.94
2023-04-29T22:44:36.208Z,100801.06
2023-04-29T22:47:04.248Z,100799.50
2023-04-29T22:49:31.954Z,100796.09
2023-04-29T22:51:59.651Z,100798.91
2023-04-29T22:54:27.374Z,100798.91
2023-04-29T22:56:55.154Z,100799.00
2023-04-29T22:59:22.907Z,100797.34
2023-04-29T23:01:52.567Z,100806.41
2023-04-29T23:04:20.357Z,100799.50
2023-04-29T23:06:48.200Z,100803.19
2023-04-29T23:09:16.138Z,100810.31
2023-04-29T23:11:43.931Z,100801.56
2023-04-29T23:14:11.699Z,100799.63
2023-04-29T23:16:39.538Z,100809.25
2023-04-29T23:19:08.742Z,100805.59
2023-04-29T23:21:36.410Z,100811.91
2023-04-29T23:24:04.569Z,100818.31
2023-04-29T23:26:32.622Z,100806.81
2023-04-29T23:29:00.543Z,100814.81
2023-04-29T23:31:28.328Z,100816.66
2023-04-29T23:33:56.088Z,100816.03
2023-04-29T23:36:25.268Z,100807.19
2023-04-29T23:38:52.953Z,100809.00
2023-04-29T23:41:20.798Z,100809.13
2023-04-29T23:43:48.535Z,100803.78
2023-04-29T23:46:16.411Z,100807.31
2023-04-29T23:48:44.205Z,100810.81
2023-04-29T23:51:11.912Z,100812.75
2023-04-29T23:53:41.017Z,100804.84
2023-04-29T23:56:09.175Z,100810.34
2023-04-29T23:58:37.211Z,100808.63
